sensor_id;sensor_type;location;lat;lon;timestamp;pressure;altitude;pressure_sealevel;temperature;humidity
73817;BME280;62146;53.232;-1.304;2022-07-29T00:02:25;100752.91;;;20.29;59.65
73817;BME280;62146;53.232;-1.304;2022-07-29T00:04:52;100752.41;;;20.27;59.90
73817;BME280;62146;53.232;-1.304;2022-07-29T00:07:19;100754.31;;;20.27;59.98
73817;BME280;62146;53.232;-1.304;2022-07-29T00:09:46;100753.78;;;20.25;59.93
73817;BME280;62146;53.232;-1.304;2022-07-29T00:12:19;100751.97;;;20.20;60.21
73817;BME280;62146;53.232;-1.304;2022-07-29T00:14:55;100758.56;;;20.14;60.39
73817;BME280;62146;53.232;-1.304;2022-07-29T00:17:25;100754.44;;;20.17;60.62
73817;BME280;62146;53.232;-1.304;2022-07-29T00:19:52;100755.56;;;20.16;60.62
73817;BME280;62146;53.232;-1.304;2022-07-29T00:22:19;100753.66;;;20.16;60.64
73817;BME280;62146;53.232;-1.304;2022-07-29T00:24:49;100755.41;;;20.08;60.66
73817;BME280;62146;53.232;-1.304;2022-07-29T00:27:17;100758.03;;;20.13;60.75
73817;BME280;62146;53.232;-1.304;2022-07-29T00:29:44;100759.78;;;20.04;60.84
73817;BME280;62146;53.232;-1.304;2022-07-29T00:32:10;100758.69;;;20.05;61.14
73817;BME280;62146;53.232;-1.304;2022-07-29T00:34:37;100750.69;;;20.00;61.40
73817;BME280;62146;53.232;-1.304;2022-07-29T00:37:22;100748.50;;;20.02;61.35
73817;BME280;62146;53.232;-1.304;2022-07-29T00:39:49;100753.38;;;20.00;61.68
73817;BME280;62146;53.232;-1.304;2022-07-29T00:42:16;100757.44;;;19.97;61.71
73817;BME280;62146;53.232;-1.304;2022-07-29T00:44:43;100748.34;;;19.93;61.85
73817;BME280;62146;53.232;-1.304;2022-07-29T00:47:10;100755.72;;;19.88;62.19
73817;BME280;62146;53.232;-1.304;2022-07-29T00:49:39;100755.63;;;19.93;62.13
73817;BME280;62146;53.232;-1.304;2022-07-29T00:52:07;100758.31;;;19.93;62.64
73817;BME280;62146;53.232;-1.304;2022-07-29T00:54:34;100756.50;;;19.88;62.74
73817;BME280;62146;53.232;-1.304;2022-07-29T00:57:06;100751.63;;;19.90;63.02
73817;BME280;62146;53.232;-1.304;2022-07-29T00:59:34;100755.84;;;19.96;62.96
73817;BME280;62146;53.232;-1.304;2022-07-29T01:02:03;100744.50;;;19.99;62.93
73817;BME280;62146;53.232;-1.304;2022-07-29T01:04:30;100743.75;;;19.94;63.37
73817;BME280;62146;53.232;-1.304;2022-07-29T01:06:58;100760.66;;;19.99;63.36
73817;BME280;62146;53.232;-1.304;2022-07-29T01:09:26;100748.56;;;19.97;63.45
73817;BME280;62146;53.232;-1.304;2022-07-29T01:12:14;100753.81;;;19.88;63.79
73817;BME280;62146;53.232;-1.304;2022-07-29T01:14:42;100749.81;;;19.86;63.99
73817;BME280;62146;53.232;-1.304;2022-07-29T01:19:51;100754.75;;;19.79;64.54
73817;BME280;62146;53.232;-1.304;2022-07-29T01:28:05;100753.16;;;19.78;65.27
73817;BME280;62146;53.232;-1.304;2022-07-29T01:30:38;100750.09;;;19.85;65.01
73817;BME280;62146;53.232;-1.304;2022-07-29T01:33:11;100760.44;;;19.78;65.21
73817;BME280;62146;53.232;-1.304;2022-07-29T01:36:01;100758.53;;;19.78;65.32
73817;BME280;62146;53.232;-1.304;2022-07-29T01:38:31;100759.63;;;19.77;65.52
73817;BME280;62146;53.232;-1.304;2022-07-29T01:41:05;100761.75;;;19.80;65.59
73817;BME280;62146;53.232;-1.304;2022-07-29T01:43:44;100753.50;;;19.72;65.92
73817;BME280;62146;53.232;-1.304;2022-07-29T01:46:21;100756.41;;;19.75;65.77
73817;BME280;62146;53.232;-1.304;2022-07-29T01:48:55;100765.06;;;19.72;66.33
73817;BME280;62146;53.232;-1.304;2022-07-29T01:51:35;100750.81;;;19.72;66.18
73817;BME280;62146;53.232;-1.304;2022-07-29T01:54:08;100748.81;;;19.59;66.77
73817;BME280;62146;53.232;-1.304;2022-07-29T01:56:38;100746.34;;;19.62;67.11
73817;BME280;62146;53.232;-1.304;2022-07-29T01:59:06;100742.47;;;19.73;66.65
73817;BME280;62146;53.232;-1.304;2022-07-29T02:01:37;100744.44;;;19.63;66.99
73817;BME280;62146;53.232;-1.304;2022-07-29T02:04:07;100753.09;;;19.60;67.35
73817;BME280;62146;53.232;-1.304;2022-07-29T02:06:38;100749.75;;;19.73;66.77
73817;BME280;62146;53.232;-1.304;2022-07-29T02:09:07;100739.00;;;19.68;67.16
73817;BME280;62146;53.232;-1.304;2022-07-29T02:11:35;100744.44;;;19.63;67.66
73817;BME280;62146;53.232;-1.304;2022-07-29T02:14:04;100747.13;;;19.63;67.61
73817;BME280;62146;53.232;-1.304;2022-07-29T02:16:33;100742.84;;;19.62;67.98
73817;BME280;62146;53.232;-1.304;2022-07-29T02:19:02;100746.03;;;19.64;68.16
73817;BME280;62146;53.232;-1.304;2022-07-29T02:21:30;100743.06;;;19.65;67.81
73817;BME280;62146;53.232;-1.304;2022-07-29T02:24:00;100746.56;;;19.66;68.02
73817;BME280;62146;53.232;-1.304;2022-07-29T02:26:29;100752.94;;;19.75;67.57
73817;BME280;62146;53.232;-1.304;2022-07-29T02:28:58;100746.22;;;19.72;67.82
73817;BME280;62146;53.232;-1.304;2022-07-29T02:31:30;100743.88;;;19.66;68.32
73817;BME280;62146;53.232;-1.304;2022-07-29T02:34:01;100743.66;;;19.62;68.33
73817;BME280;62146;53.232;-1.304;2022-07-29T02:36:29;100751.28;;;19.56;68.71
73817;BME280;62146;53.232;-1.304;2022-07-29T02:38:58;100745.41;;;19.54;69.07
73817;BME280;62146;53.232;-1.304;2022-07-29T02:41:45;100752.63;;;19.53;68.98
73817;BME280;62146;53.232;-1.304;2022-07-29T02:44:18;100751.81;;;19.58;69.07
73817;BME280;62146;53.232;-1.304;2022-07-29T02:52:01;100751.81;;;19.58;69.45
73817;BME280;62146;53.232;-1.304;2022-07-29T02:54:31;100756.72;;;19.51;69.60
73817;BME280;62146;53.232;-1.304;2022-07-29T02:57:03;100759.66;;;19.54;69.67
73817;BME280;62146;53.232;-1.304;2022-07-29T02:59:34;100755.34;;;19.53;69.91
73817;BME280;62146;53.232;-1.304;2022-07-29T03:02:03;100750.09;;;19.43;70.00
73817;BME280;62146;53.232;-1.304;2022-07-29T03:04:32;100757.28;;;19.48;69.98
73817;BME280;62146;53.232;-1.304;2022-07-29T03:07:01;100754.38;;;19.44;70.32
73817;BME280;62146;53.232;-1.304;2022-07-29T03:09:29;100755.47;;;19.43;70.18
73817;BME280;62146;53.232;-1.304;2022-07-29T03:11:56;100756.03;;;19.40;70.66
73817;BME280;62146;53.232;-1.304;2022-07-29T03:14:24;100755.47;;;19.43;70.22
73817;BME280;62146;53.232;-1.304;2022-07-29T03:16:51;100747.47;;;19.38;70.61
73817;BME280;62146;53.232;-1.304;2022-07-29T03:19:19;100748.84;;;19.36;70.71
73817;BME280;62146;53.232;-1.304;2022-07-29T03:21:46;100749.63;;;19.36;70.85
73817;BME280;62146;53.232;-1.304;2022-07-29T03:24:31;100746.88;;;19.41;70.71
73817;BME280;62146;53.232;-1.304;2022-07-29T03:26:58;100750.44;;;19.37;71.15
73817;BME280;62146;53.232;-1.304;2022-07-29T03:29:25;100744.03;;;19.33;nan
73817;BME280;62146;53.232;-1.304;2022-07-29T03:31:58;100746.94;;;19.36;71.07
73817;BME280;62146;53.232;-1.304;2022-07-29T03:34:25;100748.63;;;19.32;71.38
73817;BME280;62146;53.232;-1.304;2022-07-29T03:36:52;100743.00;;;19.29;71.82
73817;BME280;62146;53.232;-1.304;2022-07-29T03:39:22;100752.63;;;19.35;71.51
73817;BME280;62146;53.232;-1.304;2022-07-29T03:41:52;100746.16;;;19.36;70.98
73817;BME280;62146;53.232;-1.304;2022-07-29T03:44:21;100745.53;;;19.21;71.84
73817;BME280;62146;53.232;-1.304;2022-07-29T03:46:50;100749.53;;;19.23;71.98
73817;BME280;62146;53.232;-1.304;2022-07-29T03:49:19;100752.41;;;19.32;71.60
73817;BME280;62146;53.232;-1.304;2022-07-29T03:51:47;100759.91;;;19.34;71.44
73817;BME280;62146;53.232;-1.304;2022-07-29T03:54:13;100759.59;;;19.36;71.39
73817;BME280;62146;53.232;-1.304;2022-07-29T03:56:43;100757.88;;;19.22;71.88
73817;BME280;62146;53.232;-1.304;2022-07-29T03:59:13;100759.47;;;19.23;72.02
73817;BME280;62146;53.232;-1.304;2022-07-29T04:01:41;100760.97;;;19.33;71.52
73817;BME280;62146;53.232;-1.304;2022-07-29T04:04:08;100759.72;;;19.26;71.56
73817;BME280;62146;53.232;-1.304;2022-07-29T04:06:42;100755.72;;;19.24;71.88
73817;BME280;62146;53.232;-1.304;2022-07-29T04:09:11;100751.41;;;19.23;71.92
73817;BME280;62146;53.232;-1.304;2022-07-29T04:11:39;100753.06;;;19.19;72.35
73817;BME280;62146;53.232;-1.304;2022-07-29T04:14:25;100747.69;;;19.19;72.53
73817;BME280;62146;53.232;-1.304;2022-07-29T04:16:52;100752.28;;;19.18;72.69
73817;BME280;62146;53.232;-1.304;2022-07-29T04:19:19;100746.09;;;18.95;73.60
73817;BME280;62146;53.232;-1.304;2022-07-29T04:21:46;100748.84;;;19.13;72.86
73817;BME280;62146;53.232;-1.304;2022-07-29T04:24:12;100753.84;;;18.96;73.86
73817;BME280;62146;53.232;-1.304;2022-07-29T04:26:39;100757.06;;;18.98;73.74
73817;BME280;62146;53.232;-1.304;2022-07-29T04:29:06;100756.78;;;19.00;73.59
73817;BME280;62146;53.232;-1.304;2022-07-29T04:31:33;100758.84;;;19.07;73.59
73817;BME280;62146;53.232;-1.304;2022-07-29T04:33:59;100757.56;;;19.00;73.60
73817;BME280;62146;53.232;-1.304;2022-07-29T04:36:26;100762.47;;;19.21;73.02
73817;BME280;62146;53.232;-1.304;2022-07-29T04:38:56;100757.19;;;19.11;73.17
73817;BME280;62146;53.232;-1.304;2022-07-29T04:41:22;100769.50;;;19.17;73.24
73817;BME280;62146;53.232;-1.304;2022-07-29T04:43:58;100769.84;;;19.11;73.67
73817;BME280;62146;53.232;-1.304;2022-07-29T04:46:27;100761.50;;;19.12;73.42
73817;BME280;62146;53.232;-1.304;2022-07-29T04:48:54;100760.06;;;19.20;73.60
73817;BME280;62146;53.232;-1.304;2022-07-29T04:51:20;100763.25;;;19.22;73.54
73817;BME280;62146;53.232;-1.304;2022-07-29T04:53:47;100753.06;;;19.19;73.29
73817;BME280;62146;53.232;-1.304;2022-07-29T04:56:14;100758.44;;;19.19;73.37
73817;BME280;62146;53.232;-1.304;2022-07-29T04:58:40;100760.09;;;19.15;73.43
73817;BME280;62146;53.232;-1.304;2022-07-29T05:01:07;100767.34;;;19.19;73.42
73817;BME280;62146;53.232;-1.304;2022-07-29T05:03:33;100768.88;;;19.25;72.91
73817;BME280;62146;53.232;-1.304;2022-07-29T05:06:00;100769.16;;;19.24;73.21
73817;BME280;62146;53.232;-1.304;2022-07-29T05:08:26;100767.63;;;19.18;73.74
73817;BME280;62146;53.232;-1.304;2022-07-29T05:10:53;100766.91;;;19.07;74.14
73817;BME280;62146;53.232;-1.304;2022-07-29T05:13:20;100758.50;;;19.14;73.86
73817;BME280;62146;53.232;-1.304;2022-07-29T05:15:46;100765.31;;;19.30;73.31
73817;BME280;62146;53.232;-1.304;2022-07-29T05:18:13;100776.66;;;19.27;73.52
73817;BME280;62146;53.232;-1.304;2022-07-29T05:20:40;100779.94;;;19.24;73.74
73817;BME280;62146;53.232;-1.304;2022-07-29T05:23:07;100785.53;;;19.27;73.31
73817;BME280;62146;53.232;-1.304;2022-07-29T05:25:33;100788.91;;;19.14;73.88
73817;BME280;62146;53.232;-1.304;2022-07-29T05:28:09;100785.63;;;19.17;73.69
73817;BME280;62146;53.232;-1.304;2022-07-29T05:30:35;100787.69;;;19.25;73.71
73817;BME280;62146;53.232;-1.304;2022-07-29T05:33:02;100788.63;;;19.16;74.01
73817;BME280;62146;53.232;-1.304;2022-07-29T05:35:29;100792.34;;;18.92;74.96
73817;BME280;62146;53.232;-1.304;2022-07-29T05:37:55;100787.03;;;18.87;75.70
73817;BME280;62146;53.232;-1.304;2022-07-29T05:40:22;100791.16;;;19.03;75.19
73817;BME280;62146;53.232;-1.304;2022-07-29T05:42:48;100783.66;;;19.00;75.29
73817;BME280;62146;53.232;-1.304;2022-07-29T05:45:15;100788.34;;;18.84;76.72
73817;BME280;62146;53.232;-1.304;2022-07-29T05:47:42;100794.81;;;18.83;77.19
73817;BME280;62146;53.232;-1.304;2022-07-29T05:50:08;100792.13;;;18.83;77.33
73817;BME280;62146;53.232;-1.304;2022-07-29T05:52:35;100790.75;;;18.91;77.33
73817;BME280;62146;53.232;-1.304;2022-07-29T05:55:01;100804.94;;;18.96;77.73
73817;BME280;62146;53.232;-1.304;2022-07-29T05:57:30;100799.94;;;19.13;76.72
73817;BME280;62146;53.232;-1.304;2022-07-29T05:59:57;100802.81;;;19.21;76.67
73817;BME280;62146;53.232;-1.304;2022-07-29T06:02:24;100806.06;;;19.18;77.54
73817;BME280;62146;53.232;-1.304;2022-07-29T06:04:50;100807.78;;;19.32;76.64
73817;BME280;62146;53.232;-1.304;2022-07-29T06:07:17;100808.81;;;19.36;77.16
73817;BME280;62146;53.232;-1.304;2022-07-29T06:09:44;100812.44;;;19.50;76.78
73817;BME280;62146;53.232;-1.304;2022-07-29T06:12:10;100808.50;;;19.61;76.53
73817;BME280;62146;53.232;-1.304;2022-07-29T06:14:37;100803.19;;;19.56;77.05
73817;BME280;62146;53.232;-1.304;2022-07-29T06:17:04;100815.88;;;19.79;76.06
73817;BME280;62146;53.232;-1.304;2022-07-29T06:19:34;100810.56;;;19.74;76.35
73817;BME280;62146;53.232;-1.304;2022-07-29T06:22:01;100817.41;;;19.61;77.86
73817;BME280;62146;53.232;-1.304;2022-07-29T06:24:28;100814.09;;;19.46;77.97
73817;BME280;62146;53.232;-1.304;2022-07-29T06:26:55;100817.88;;;19.45;78.13
73817;BME280;62146;53.232;-1.304;2022-07-29T06:29:22;100819.88;;;19.35;79.85
73817;BME280;62146;53.232;-1.304;2022-07-29T06:31:48;100824.00;;;19.51;78.35
73817;BME280;62146;53.232;-1.304;2022-07-29T06:34:15;100824.41;;;19.39;78.73
73817;BME280;62146;53.232;-1.304;2022-07-29T06:36:43;100822.44;;;19.22;79.95
73817;BME280;62146;53.232;-1.304;2022-07-29T06:39:11;100822.34;;;19.32;79.31
73817;BME280;62146;53.232;-1.304;2022-07-29T06:41:37;100819.09;;;19.34;78.94
73817;BME280;62146;53.232;-1.304;2022-07-29T06:44:04;100824.63;;;19.20;80.29
73817;BME280;62146;53.232;-1.304;2022-07-29T06:46:31;100818.47;;;19.14;80.81
73817;BME280;62146;53.232;-1.304;2022-07-29T06:48:58;100823.81;;;19.19;80.45
73817;BME280;62146;53.232;-1.304;2022-07-29T06:51:28;100818.47;;;19.14;80.57
73817;BME280;62146;53.232;-1.304;2022-07-29T06:53:55;100824.28;;;19.26;79.99
73817;BME280;62146;53.232;-1.304;2022-07-29T06:56:27;100825.03;;;19.32;80.31
73817;BME280;62146;53.232;-1.304;2022-07-29T06:58:54;100824.56;;;19.48;79.38
73817;BME280;62146;53.232;-1.304;2022-07-29T07:01:20;100817.22;;;19.53;79.40
73817;BME280;62146;53.232;-1.304;2022-07-29T07:03:47;100819.41;;;19.51;80.40
73817;BME280;62146;53.232;-1.304;2022-07-29T07:06:14;100822.59;;;19.53;80.25
73817;BME280;62146;53.232;-1.304;2022-07-29T07:08:40;100829.44;;;19.46;80.75
73817;BME280;62146;53.232;-1.304;2022-07-29T07:11:08;100831.16;;;19.37;81.56
73817;BME280;62146;53.232;-1.304;2022-07-29T07:13:34;100823.13;;;19.55;81.15
73817;BME280;62146;53.232;-1.304;2022-07-29T07:16:02;100824.59;;;19.71;80.11
73817;BME280;62146;53.232;-1.304;2022-07-29T07:18:30;100832.97;;;19.64;80.52
73817;BME280;62146;53.232;-1.304;2022-07-29T07:20:57;100831.16;;;19.60;81.20
73817;BME280;62146;53.232;-1.304;2022-07-29T07:23:23;100832.31;;;19.54;81.40
73817;BME280;62146;53.232;-1.304;2022-07-29T07:25:51;100840.38;;;19.54;81.07
73817;BME280;62146;53.232;-1.304;2022-07-29T07:28:17;100833.22;;;19.45;81.36
73817;BME280;62146;53.232;-1.304;2022-07-29T07:30:50;100843.63;;;19.51;81.51
73817;BME280;62146;53.232;-1.304;2022-07-29T07:33:16;100842.38;;;19.44;81.62
73817;BME280;62146;53.232;-1.304;2022-07-29T07:35:43;100840.19;;;19.46;81.13
73817;BME280;62146;53.232;-1.304;2022-07-29T07:38:10;100835.97;;;19.63;80.33
73817;BME280;62146;53.232;-1.304;2022-07-29T07:40:37;100829.66;;;19.72;79.76
73817;BME280;62146;53.232;-1.304;2022-07-29T07:43:03;100827.81;;;19.73;79.63
73817;BME280;62146;53.232;-1.304;2022-07-29T07:45:30;100835.00;;;19.54;80.86
73817;BME280;62146;53.232;-1.304;2022-07-29T07:47:59;100835.25;;;19.81;80.05
73817;BME280;62146;53.232;-1.304;2022-07-29T07:50:26;100840.16;;;19.74;79.91
73817;BME280;62146;53.232;-1.304;2022-07-29T07:52:55;100843.34;;;19.76;80.01
73817;BME280;62146;53.232;-1.304;2022-07-29T07:55:25;100847.72;;;19.72;80.37
73817;BME280;62146;53.232;-1.304;2022-07-29T07:57:52;100854.50;;;19.64;81.31
73817;BME280;62146;53.232;-1.304;2022-07-29T08:00:20;100849.59;;;19.94;81.90
73817;BME280;62146;53.232;-1.304;2022-07-29T08:02:49;100842.06;;;19.91;80.92
73817;BME280;62146;53.232;-1.304;2022-07-29T08:05:17;100835.91;;;19.91;81.92
73817;BME280;62146;53.232;-1.304;2022-07-29T08:07:45;100844.22;;;19.71;81.85
73817;BME280;62146;53.232;-1.304;2022-07-29T08:10:16;100832.81;;;19.79;82.39
73817;BME280;62146;53.232;-1.304;2022-07-29T08:13:07;100844.28;;;19.89;81.74
73817;BME280;62146;53.232;-1.304;2022-07-29T08:15:34;100839.34;;;19.96;82.25
73817;BME280;62146;53.232;-1.304;2022-07-29T08:18:01;100840.94;;;19.97;82.29
73817;BME280;62146;53.232;-1.304;2022-07-29T08:20:34;100842.72;;;19.84;82.09
73817;BME280;62146;53.232;-1.304;2022-07-29T08:23:02;100844.50;;;19.93;82.24
73817;BME280;62146;53.232;-1.304;2022-07-29T08:25:29;100850.59;;;19.98;82.38
73817;BME280;62146;53.232;-1.304;2022-07-29T08:27:56;100847.22;;;20.11;82.24
73817;BME280;62146;53.232;-1.304;2022-07-29T08:30:23;100843.44;;;20.30;81.93
73817;BME280;62146;53.232;-1.304;2022-07-29T08:32:49;100837.88;;;20.40;81.65
73817;BME280;62146;53.232;-1.304;2022-07-29T08:35:22;100838.53;;;20.50;80.32
73817;BME280;62146;53.232;-1.304;2022-07-29T08:37:49;100843.94;;;20.50;81.03
73817;BME280;62146;53.232;-1.304;2022-07-29T08:40:16;100833.28;;;20.77;79.93
73817;BME280;62146;53.232;-1.304;2022-07-29T08:42:43;100837.84;;;20.94;79.11
73817;BME280;62146;53.232;-1.304;2022-07-29T08:45:10;100838.28;;;21.15;79.06
73817;BME280;62146;53.232;-1.304;2022-07-29T08:47:38;100835.75;;;21.05;77.84
73817;BME280;62146;53.232;-1.304;2022-07-29T08:50:09;100837.19;;;21.16;77.65
73817;BME280;62146;53.232;-1.304;2022-07-29T08:52:40;100835.38;;;21.24;77.09
73817;BME280;62146;53.232;-1.304;2022-07-29T08:55:08;100835.88;;;21.13;77.96
73817;BME280;62146;53.232;-1.304;2022-07-29T08:57:36;100836.94;;;21.30;77.31
73817;BME280;62146;53.232;-1.304;2022-07-29T09:00:17;100832.75;;;21.38;76.39
73817;BME280;62146;53.232;-1.304;2022-07-29T09:02:47;100828.13;;;21.51;77.01
73817;BME280;62146;53.232;-1.304;2022-07-29T09:05:18;100833.53;;;21.51;77.02
73817;BME280;62146;53.232;-1.304;2022-07-29T09:07:45;100839.06;;;21.60;75.79
73817;BME280;62146;53.232;-1.304;2022-07-29T09:10:14;100837.75;;;21.71;75.54
73817;BME280;62146;53.232;-1.304;2022-07-29T09:12:41;100835.25;;;21.74;75.26
73817;BME280;62146;53.232;-1.304;2022-07-29T09:15:08;100832.38;;;21.44;75.47
73817;BME280;62146;53.232;-1.304;2022-07-29T09:17:42;100837.25;;;21.42;76.55
73817;BME280;62146;53.232;-1.304;2022-07-29T09:20:18;100836.75;;;21.80;75.40
73817;BME280;62146;53.232;-1.304;2022-07-29T09:22:45;100830.31;;;21.89;73.58
73817;BME280;62146;53.232;-1.304;2022-07-29T09:25:51;100843.06;;;21.75;73.93
73817;BME280;62146;53.232;-1.304;2022-07-29T09:28:18;100840.63;;;22.14;73.40
73817;BME280;62146;53.232;-1.304;2022-07-29T09:30:57;100840.31;;;22.29;72.40
73817;BME280;62146;53.232;-1.304;2022-07-29T09:33:32;100841.06;;;22.64;72.22
73817;BME280;62146;53.232;-1.304;2022-07-29T09:36:05;100823.19;;;22.76;70.97
73817;BME280;62146;53.232;-1.304;2022-07-29T09:38:34;100821.84;;;22.87;70.69
73817;BME280;62146;53.232;-1.304;2022-07-29T09:41:04;100818.78;;;23.10;70.83
73817;BME280;62146;53.232;-1.304;2022-07-29T09:43:32;100820.56;;;23.14;68.98
73817;BME280;62146;53.232;-1.304;2022-07-29T09:46:12;100824.00;;;23.66;66.81
73817;BME280;62146;53.232;-1.304;2022-07-29T09:48:39;100817.03;;;23.82;65.21
73817;BME280;62146;53.232;-1.304;2022-07-29T09:51:19;100824.56;;;23.93;64.61
73817;BME280;62146;53.232;-1.304;2022-07-29T09:53:55;100828.41;;;24.01;63.37
73817;BME280;62146;53.232;-1.304;2022-07-29T09:56:41;100835.53;;;23.80;64.23
73817;BME280;62146;53.232;-1.304;2022-07-29T09:59:08;100827.91;;;23.99;63.43
73817;BME280;62146;53.232;-1.304;2022-07-29T10:01:36;100820.75;;;24.03;63.10
73817;BME280;62146;53.232;-1.304;2022-07-29T10:04:03;100828.41;;;24.01;62.25
73817;BME280;62146;53.232;-1.304;2022-07-29T10:06:29;100829.00;;;23.90;62.93
73817;BME280;62146;53.232;-1.304;2022-07-29T10:09:10;100831.88;;;23.76;61.94
73817;BME280;62146;53.232;-1.304;2022-07-29T10:11:37;100828.50;;;23.79;62.25
73817;BME280;62146;53.232;-1.304;2022-07-29T10:14:21;100838.19;;;23.72;62.03
73817;BME280;62146;53.232;-1.304;2022-07-29T10:16:48;100832.22;;;23.92;61.93
73817;BME280;62146;53.232;-1.304;2022-07-29T10:19:14;100829.19;;;23.93;61.82
73817;BME280;62146;53.232;-1.304;2022-07-29T10:21:41;100821.28;;;24.46;60.07
73817;BME280;62146;53.232;-1.304;2022-07-29T10:24:10;100826.06;;;25.00;57.95
73817;BME280;62146;53.232;-1.304;2022-07-29T10:26:40;100836.72;;;25.04;57.82
73817;BME280;62146;53.232;-1.304;2022-07-29T10:29:07;100830.50;;;25.04;58.10
73817;BME280;62146;53.232;-1.304;2022-07-29T10:32:16;100823.97;;;24.97;57.92
73817;BME280;62146;53.232;-1.304;2022-07-29T10:34:52;100824.28;;;24.78;56.68
73817;BME280;62146;53.232;-1.304;2022-07-29T10:37:37;100827.09;;;25.24;56.72
73817;BME280;62146;53.232;-1.304;2022-07-29T10:43:25;100822.56;;;24.82;56.90
73817;BME280;62146;53.232;-1.304;2022-07-29T10:45:57;100821.22;;;25.05;57.10
73817;BME280;62146;53.232;-1.304;2022-07-29T10:48:24;100828.31;;;25.43;56.01
73817;BME280;62146;53.232;-1.304;2022-07-29T10:50:59;100825.50;;;25.96;54.02
73817;BME280;62146;53.232;-1.304;2022-07-29T10:53:52;100819.41;;;26.28;52.32
73817;BME280;62146;53.232;-1.304;2022-07-29T10:56:24;100818.06;;;26.74;52.99
73817;BME280;62146;53.232;-1.304;2022-07-29T11:01:51;100804.56;;;25.23;53.63
73817;BME280;62146;53.232;-1.304;2022-07-29T11:07:10;100814.44;;;25.73;54.65
73817;BME280;62146;53.232;-1.304;2022-07-29T11:09:37;100812.50;;;26.02;53.62
73817;BME280;62146;53.232;-1.304;2022-07-29T11:15:06;100824.09;;;26.19;52.45
73817;BME280;62146;53.232;-1.304;2022-07-29T11:20:37;100816.06;;;25.65;52.74
73817;BME280;62146;53.232;-1.304;2022-07-29T11:23:24;100813.47;;;25.49;52.02
73817;BME280;62146;53.232;-1.304;2022-07-29T11:29:06;100815.81;;;25.05;52.43
73817;BME280;62146;53.232;-1.304;2022-07-29T11:31:45;100805.47;;;25.35;54.35
73817;BME280;62146;53.232;-1.304;2022-07-29T11:34:37;100806.53;;;25.59;53.35
73817;BME280;62146;53.232;-1.304;2022-07-29T11:39:44;100804.69;;;25.35;52.71
73817;BME280;62146;53.232;-1.304;2022-07-29T11:45:16;100808.69;;;25.37;53.06
73817;BME280;62146;53.232;-1.304;2022-07-29T11:48:04;100794.75;;;25.39;52.52
73817;BME280;62146;53.232;-1.304;2022-07-29T11:50:52;100796.06;;;25.33;52.58
73817;BME280;62146;53.232;-1.304;2022-07-29T11:53:18;100801.00;;;24.86;50.85
73817;BME280;62146;53.232;-1.304;2022-07-29T11:55:47;100799.28;;;25.27;52.97
73817;BME280;62146;53.232;-1.304;2022-07-29T11:58:24;100794.19;;;25.62;52.03
73817;BME280;62146;53.232;-1.304;2022-07-29T12:00:51;100796.81;;;25.50;52.26
73817;BME280;62146;53.232;-1.304;2022-07-29T12:03:25;100795.97;;;25.86;51.45
73817;BME280;62146;53.232;-1.304;2022-07-29T12:06:13;100789.78;;;26.26;50.32
73817;BME280;62146;53.232;-1.304;2022-07-29T12:08:41;100794.66;;;26.73;50.09
73817;BME280;62146;53.232;-1.304;2022-07-29T12:11:17;100786.22;;;27.42;47.57
73817;BME280;62146;53.232;-1.304;2022-07-29T12:13:46;100788.47;;;27.28;46.96
73817;BME280;62146;53.232;-1.304;2022-07-29T12:16:15;100794.69;;;27.17;46.44
73817;BME280;62146;53.232;-1.304;2022-07-29T12:19:01;100780.19;;;27.36;45.75
73817;BME280;62146;53.232;-1.304;2022-07-29T12:21:43;100783.59;;;27.33;46.39
73817;BME280;62146;53.232;-1.304;2022-07-29T12:24:18;100780.91;;;27.01;46.70
73817;BME280;62146;53.232;-1.304;2022-07-29T12:26:52;100784.31;;;26.66;47.33
73817;BME280;62146;53.232;-1.304;2022-07-29T12:29:19;100787.84;;;26.27;47.72
73817;BME280;62146;53.232;-1.304;2022-07-29T12:32:01;100779.44;;;26.20;47.80
73817;BME280;62146;53.232;-1.304;2022-07-29T12:34:29;100773.50;;;26.58;47.43
73817;BME280;62146;53.232;-1.304;2022-07-29T12:36:57;100773.94;;;26.80;47.04
73817;BME280;62146;53.232;-1.304;2022-07-29T12:39:23;100772.78;;;26.49;48.00
73817;BME280;62146;53.232;-1.304;2022-07-29T12:41:53;100777.41;;;26.17;48.35
73817;BME280;62146;53.232;-1.304;2022-07-29T12:44:46;100773.19;;;26.39;48.43
73817;BME280;62146;53.232;-1.304;2022-07-29T12:47:14;100769.09;;;26.86;49.17
73817;BME280;62146;53.232;-1.304;2022-07-29T12:49:41;100775.34;;;26.66;48.92
73817;BME280;62146;53.232;-1.304;2022-07-29T12:54:50;100774.63;;;26.57;49.36
73817;BME280;62146;53.232;-1.304;2022-07-29T12:57:17;100775.28;;;26.74;48.49
73817;BME280;62146;53.232;-1.304;2022-07-29T13:00:08;100787.22;;;26.82;49.26
73817;BME280;62146;53.232;-1.304;2022-07-29T13:02:38;100783.91;;;26.76;47.33
73817;BME280;62146;53.232;-1.304;2022-07-29T13:05:06;100777.66;;;26.76;49.05
73817;BME280;62146;53.232;-1.304;2022-07-29T13:07:35;100773.63;;;26.93;48.05
73817;BME280;62146;53.232;-1.304;2022-07-29T13:10:21;100775.66;;;27.28;47.77
73817;BME280;62146;53.232;-1.304;2022-07-29T13:15:41;100782.59;;;27.73;47.21
73817;BME280;62146;53.232;-1.304;2022-07-29T13:20:54;100776.78;;;27.39;48.06
73817;BME280;62146;53.232;-1.304;2022-07-29T13:23:21;100781.28;;;27.12;47.75
73817;BME280;62146;53.232;-1.304;2022-07-29T13:25:48;100777.66;;;27.19;47.78
73817;BME280;62146;53.232;-1.304;2022-07-29T13:28:15;100783.50;;;26.86;47.37
73817;BME280;62146;53.232;-1.304;2022-07-29T13:30:42;100778.59;;;26.80;48.67
73817;BME280;62146;53.232;-1.304;2022-07-29T13:33:10;100770.66;;;26.87;48.92
73817;BME280;62146;53.232;-1.304;2022-07-29T13:35:37;100776.53;;;26.77;47.85
73817;BME280;62146;53.232;-1.304;2022-07-29T13:38:05;100767.06;;;26.63;48.40
73817;BME280;62146;53.232;-1.304;2022-07-29T13:40:32;100766.47;;;26.77;47.67
73817;BME280;62146;53.232;-1.304;2022-07-29T13:43:00;100769.22;;;26.17;47.25